createdAt,value
2022-12-17T00:00:54.175Z,978.49
2022-12-17T00:01:53.978Z,978.52
2022-12-17T00:02:53.984Z,978.53
2022-12-17T00:03:53.896Z,978.54
2022-12-17T00:04:53.691Z,978.54
2022-12-17T00:05:53.606Z,978.58
2022-12-17T00:06:53.510Z,978.55
2022-12-17T00:07:53.424Z,978.59
2022-12-17T00:08:53.337Z,978.61
2022-12-17T00:09:53.250Z,978.62
2022-12-17T00:10:53.154Z,978.62
2022-12-17T00:11:53.068Z,978.65
2022-12-17T00:12:52.983Z,978.65
2022-12-17T00:13:52.887Z,978.69
2022-12-17T00:14:52.796Z,978.71
2022-12-17T00:15:52.761Z,978.71
2022-12-17T00:16:52.623Z,978.71
2022-12-17T00:17:52.534Z,978.70
2022-12-17T00:18:52.443Z,978.72
2022-12-17T00:19:52.353Z,978.71
2022-12-17T00:20:52.263Z,978.73
2022-12-17T00:21:52.173Z,978.76
2022-12-17T00:22:52.085Z,978.76
2022-12-17T00:23:51.996Z,978.79
2022-12-17T00:24:51.922Z,978.81
2022-12-17T00:25:51.817Z,978.85
2022-12-17T00:26:51.725Z,978.87
2022-12-17T00:27:51.641Z,978.95
2022-12-17T00:28:51.546Z,978.96
2022-12-17T00:29:51.466Z,978.93
2022-12-17T00:30:51.365Z,978.98
2022-12-17T00:31:51.307Z,979.04
2022-12-17T00:32:51.194Z,979.05
2022-12-17T00:33:51.098Z,979.03
2022-12-17T00:34:51.010Z,979.06
2022-12-17T00:35:50.921Z,979.05
2022-12-17T00:36:50.830Z,979.01
2022-12-17T00:37:50.746Z,979.03
2022-12-17T00:38:50.651Z,979.08
2022-12-17T00:39:53.512Z,979.09
2022-12-17T00:40:50.475Z,979.08
2022-12-17T00:41:50.388Z,979.11
2022-12-17T00:42:50.297Z,979.12
2022-12-17T00:43:50.207Z,979.15
2022-12-17T00:44:50.118Z,979.15
2022-12-17T00:45:50.028Z,979.14
2022-12-17T00:46:50.053Z,979.13
2022-12-17T00:47:49.850Z,979.12
2022-12-17T00:48:49.762Z,979.14
2022-12-17T00:49:49.666Z,979.17
2022-12-17T00:50:49.584Z,979.17
2022-12-17T00:51:49.492Z,979.18
2022-12-17T00:52:49.401Z,979.16
2022-12-17T00:53:49.318Z,979.16
2022-12-17T00:54:49.224Z,979.16
2022-12-17T00:55:49.132Z,979.19
2022-12-17T00:56:49.040Z,979.25
2022-12-17T00:57:48.957Z,979.24
2022-12-17T00:58:48.866Z,979.25
2022-12-17T00:59:48.785Z,979.27
2022-12-17T01:00:48.763Z,979.28
2022-12-17T01:01:48.785Z,979.32
2022-12-17T01:02:48.692Z,979.30
2022-12-17T01:03:48.421Z,979.30
2022-12-17T01:04:48.332Z,979.31
2022-12-17T01:05:48.236Z,979.31
2022-12-17T01:06:48.148Z,979.26
2022-12-17T01:07:48.064Z,979.28
2022-12-17T01:08:47.973Z,979.32
2022-12-17T01:09:47.880Z,979.32
2022-12-17T01:10:47.791Z,979.35
2022-12-17T01:11:47.703Z,979.31
2022-12-17T01:12:47.614Z,979.32
2022-12-17T01:13:47.525Z,979.36
2022-12-17T01:14:47.432Z,979.31
2022-12-17T01:15:47.348Z,979.37
2022-12-17T01:16:47.317Z,979.39
2022-12-17T01:17:47.168Z,979.40
2022-12-17T01:18:47.079Z,979.43
2022-12-17T01:19:46.985Z,979.47
2022-12-17T01:20:46.903Z,979.50
2022-12-17T01:21:46.809Z,979.48
2022-12-17T01:22:46.718Z,979.50
2022-12-17T01:23:46.639Z,979.48
2022-12-17T01:24:46.537Z,979.46
2022-12-17T01:25:46.453Z,979.52
2022-12-17T01:26:46.361Z,979.53
2022-12-17T01:27:46.276Z,979.54
2022-12-17T01:28:46.182Z,979.55
2022-12-17T01:29:46.092Z,979.58
2022-12-17T01:30:46.007Z,979.58
2022-12-17T01:31:45.959Z,979.59
2022-12-17T01:32:45.824Z,979.64
2022-12-17T01:33:45.740Z,979.65
2022-12-17T01:34:45.648Z,979.68
2022-12-17T01:35:45.557Z,979.67
2022-12-17T01:36:45.468Z,979.70
2022-12-17T01:37:45.385Z,979.77
2022-12-17T01:38:45.288Z,979.78
2022-12-17T01:39:45.201Z,979.80
2022-12-17T01:40:45.113Z,979.81
2022-12-17T01:41:45.021Z,979.84
2022-12-17T01:42:44.933Z,979.86
2022-12-17T01:43:44.842Z,979.83
2022-12-17T01:44:44.758Z,979.84
2022-12-17T01:45:44.697Z,979.80
2022-12-17T01:46:44.574Z,979.79
2022-12-17T01:47:44.492Z,979.82
2022-12-17T01:48:44.493Z,979.83
2022-12-17T01:49:44.308Z,979.83
2022-12-17T01:50:44.220Z,979.79
2022-12-17T01:51:44.129Z,979.87
2022-12-17T01:52:44.042Z,979.83
2022-12-17T01:53:43.957Z,979.84
2022-12-17T01:54:43.862Z,979.82
2022-12-17T01:55:43.776Z,979.83
2022-12-17T01:56:43.685Z,979.87
2022-12-17T01:57:43.607Z,979.86
2022-12-17T01:58:43.506Z,979.84
2022-12-17T01:59:43.419Z,979.85
2022-12-17T02:00:43.362Z,979.85
2022-12-17T02:01:43.418Z,979.90
2022-12-17T02:02:43.224Z,979.93
2022-12-17T02:03:43.061Z,979.96
2022-12-17T02:04:42.973Z,979.97
2022-12-17T02:05:42.879Z,979.93
2022-12-17T02:06:42.793Z,979.96
2022-12-17T02:07:42.808Z,979.93
2022-12-17T02:08:42.614Z,979.94
2022-12-17T02:09:42.524Z,979.95
2022-12-17T02:10:42.435Z,979.94
2022-12-17T02:11:42.348Z,979.99
2022-12-17T02:12:42.259Z,979.99
2022-12-17T02:13:42.166Z,980.00
2022-12-17T02:14:42.078Z,979.97
2022-12-17T02:15:41.996Z,979.99
2022-12-17T02:16:41.926Z,980.00
2022-12-17T02:17:41.810Z,980.03
2022-12-17T02:18:41.724Z,980.03
2022-12-17T02:19:41.631Z,980.01
2022-12-17T02:20:41.545Z,980.02
2022-12-17T02:21:41.457Z,980.04
2022-12-17T02:22:41.365Z,980.03
2022-12-17T02:23:41.272Z,980.06
2022-12-17T02:24:41.183Z,980.04
2022-12-17T02:25:41.094Z,980.07
2022-12-17T02:26:41.007Z,980.08
2022-12-17T02:27:40.915Z,980.07
2022-12-17T02:28:40.831Z,980.10
2022-12-17T02:29:40.744Z,980.11
2022-12-17T02:30:40.650Z,980.11
2022-12-17T02:31:40.624Z,980.17
2022-12-17T02:32:40.472Z,980.21
2022-12-17T02:33:40.379Z,980.20
2022-12-17T02:34:40.291Z,980.21
2022-12-17T02:35:40.201Z,980.21
2022-12-17T02:36:40.120Z,980.19
2022-12-17T02:37:40.027Z,980.21
2022-12-17T02:38:39.938Z,980.20
2022-12-17T02:39:39.844Z,980.18
2022-12-17T02:40:39.766Z,980.21
2022-12-17T02:41:39.670Z,980.23
2022-12-17T02:42:39.575Z,980.27
2022-12-17T02:43:39.488Z,980.22
2022-12-17T02:44:39.401Z,980.27
2022-12-17T02:45:39.361Z,980.24
2022-12-17T02:46:39.217Z,980.30
2022-12-17T02:47:39.132Z,980.28
2022-12-17T02:48:39.044Z,980.27
2022-12-17T02:49:38.947Z,980.25
2022-12-17T02:50:38.866Z,980.28
2022-12-17T02:51:38.769Z,980.29
2022-12-17T02:52:38.688Z,980.33
2022-12-17T02:53:38.701Z,980.36
2022-12-17T02:54:38.508Z,980.35
2022-12-17T02:55:38.411Z,980.37
2022-12-17T02:56:38.327Z,980.32
2022-12-17T02:57:43.438Z,980.36
2022-12-17T02:58:38.155Z,980.33
2022-12-17T02:59:38.054Z,980.36
2022-12-17T03:00:37.966Z,980.36
2022-12-17T03:01:37.953Z,980.39
2022-12-17T03:02:37.907Z,980.37
2022-12-17T03:03:38.039Z,980.37
2022-12-17T03:04:37.611Z,980.44
2022-12-17T03:05:45.744Z,980.45
2022-12-17T03:06:37.430Z,980.46
2022-12-17T03:07:37.342Z,980.48
2022-12-17T03:08:37.258Z,980.54
2022-12-17T03:09:37.162Z,980.53
2022-12-17T03:10:37.072Z,980.55
2022-12-17T03:11:36.983Z,980.58
2022-12-17T03:12:36.900Z,980.63
2022-12-17T03:13:37.057Z,980.63
2022-12-17T03:14:36.720Z,980.65
2022-12-17T03:15:36.630Z,980.66
2022-12-17T03:16:38.103Z,980.67
2022-12-17T03:17:36.451Z,980.70
2022-12-17T03:18:36.354Z,980.70
2022-12-17T03:19:36.262Z,980.72
2022-12-17T03:20:36.176Z,980.72
2022-12-17T03:21:36.080Z,980.76
2022-12-17T03:22:35.993Z,980.74
2022-12-17T03:23:36.332Z,980.80
2022-12-17T03:24:35.841Z,980.81
2022-12-17T03:25:35.720Z,980.80
2022-12-17T03:26:35.634Z,980.79
2022-12-17T03:27:35.544Z,980.80
2022-12-17T03:28:35.481Z,980.80
2022-12-17T03:29:35.364Z,980.82
2022-12-17T03:30:36.884Z,980.79
2022-12-17T03:31:35.222Z,980.79
2022-12-17T03:32:35.094Z,980.79
2022-12-17T03:33:35.655Z,980.82
2022-12-17T03:34:34.915Z,980.81
2022-12-17T03:35:34.824Z,980.80
2022-12-17T03:36:34.733Z,980.80
2022-12-17T03:37:34.644Z,980.80
2022-12-17T03:38:34.556Z,980.79
2022-12-17T03:39:34.462Z,980.84
2022-12-17T03:40:34.379Z,980.83
2022-12-17T03:41:34.285Z,980.85
2022-12-17T03:42:34.195Z,980.84
2022-12-17T03:43:34.503Z,980.89
2022-12-17T03:44:34.016Z,980.89
2022-12-17T03:45:33.921Z,980.90
2022-12-17T03:46:33.937Z,980.84
2022-12-17T03:47:33.743Z,980.89
2022-12-17T03:48:33.654Z,980.92
2022-12-17T03:49:33.561Z,980.91
2022-12-17T03:50:33.476Z,980.90
2022-12-17T03:51:33.404Z,980.88
2022-12-17T03:52:33.290Z,980.88
2022-12-17T03:53:33.592Z,980.88
2022-12-17T03:54:33.109Z,980.87
2022-12-17T03:55:33.020Z,980.91
2022-12-17T03:56:32.929Z,980.91
2022-12-17T03:57:32.846Z,980.95
2022-12-17T03:58:32.758Z,980.94
2022-12-17T03:59:32.666Z,980.93
2022-12-17T04:00:32.571Z,980.91
2022-12-17T04:01:32.611Z,980.90
2022-12-17T04:02:32.617Z,980.91
2022-12-17T04:03:32.412Z,980.91
2022-12-17T04:04:32.209Z,980.93
2022-12-17T04:05:32.115Z,980.91
2022-12-17T04:06:32.026Z,980.92
2022-12-17T04:07:31.934Z,980.92
2022-12-17T04:08:31.846Z,980.95
2022-12-17T04:09:31.758Z,980.99
2022-12-17T04:10:31.666Z,981.02
2022-12-17T04:11:31.569Z,981.03
2022-12-17T04:12:31.491Z,981.02
2022-12-17T04:13:33.685Z,981.04
2022-12-17T04:14:31.298Z,981.06
2022-12-17T04:15:31.238Z,981.06
2022-12-17T04:16:31.125Z,981.09
2022-12-17T04:17:31.025Z,981.10
2022-12-17T04:18:30.935Z,981.15
2022-12-17T04:19:30.850Z,981.17
2022-12-17T04:20:30.759Z,981.16
2022-12-17T04:21:30.666Z,981.22
2022-12-17T04:22:30.577Z,981.20
2022-12-17T04:23:30.518Z,981.20
2022-12-17T04:24:30.397Z,981.19
2022-12-17T04:25:30.302Z,981.22
2022-12-17T04:26:30.213Z,981.29
2022-12-17T04:27:30.131Z,981.29
2022-12-17T04:28:30.037Z,981.33
2022-12-17T04:29:29.939Z,981.36
2022-12-17T04:30:29.854Z,981.39
2022-12-17T04:31:29.810Z,981.41
2022-12-17T04:32:34.922Z,981.39
2022-12-17T04:33:29.582Z,981.38
2022-12-17T04:34:29.492Z,981.41
2022-12-17T04:35:29.396Z,981.38
2022-12-17T04:36:29.302Z,981.41
2022-12-17T04:37:29.223Z,981.41
2022-12-17T04:38:29.121Z,981.42
2022-12-17T04:39:29.030Z,981.43
2022-12-17T04:40:28.940Z,981.36
2022-12-17T04:41:28.852Z,981.38
2022-12-17T04:42:28.760Z,981.37
2022-12-17T04:43:28.663Z,981.41
2022-12-17T04:44:28.574Z,981.38
2022-12-17T04:45:28.481Z,981.40
2022-12-17T04:46:28.425Z,981.41
2022-12-17T04:47:28.301Z,981.40
2022-12-17T04:48:28.213Z,981.43
2022-12-17T04:49:28.120Z,981.47
2022-12-17T04:50:28.036Z,981.47
2022-12-17T04:51:27.934Z,981.49
2022-12-17T04:52:27.849Z,981.48
2022-12-17T04:53:27.753Z,981.50
2022-12-17T04:54:27.666Z,981.50
2022-12-17T04:55:27.571Z,981.48
2022-12-17T04:56:27.488Z,981.50
2022-12-17T04:57:27.394Z,981.51
2022-12-17T04:58:27.302Z,981.47
2022-12-17T04:59:27.210Z,981.48
2022-12-17T05:00:27.122Z,981.47
2022-12-17T05:01:27.126Z,981.53
2022-12-17T05:02:27.071Z,981.56
2022-12-17T05:03:26.876Z,981.55
2022-12-17T05:04:26.761Z,981.63
2022-12-17T05:05:26.667Z,981.61
2022-12-17T05:06:26.572Z,981.62
2022-12-17T05:07:26.486Z,981.61
2022-12-17T05:08:26.388Z,981.63
2022-12-17T05:09:26.301Z,981.64
2022-12-17T05:10:26.209Z,981.65
2022-12-17T05:11:26.119Z,981.69
2022-12-17T05:12:26.030Z,981.73
2022-12-17T05:13:25.933Z,981.70
2022-12-17T05:14:25.845Z,981.73
2022-12-17T05:15:25.759Z,981.76
2022-12-17T05:16:25.722Z,981.79
2022-12-17T05:17:25.567Z,981.84
2022-12-17T05:18:25.494Z,981.83
2022-12-17T05:19:25.384Z,981.88
2022-12-17T05:20:25.296Z,981.84
2022-12-17T05:21:28.094Z,981.90
2022-12-17T05:22:25.120Z,981.96
2022-12-17T05:23:25.018Z,981.95
2022-12-17T05:24:24.932Z,981.98
2022-12-17T05:25:24.841Z,982.02
2022-12-17T05:26:24.745Z,982.05
2022-12-17T05:27:24.658Z,982.05
2022-12-17T05:28:24.565Z,982.09
2022-12-17T05:29:24.472Z,982.06
2022-12-17T05:30:24.381Z,982.07
2022-12-17T05:31:24.415Z,982.04
2022-12-17T05:32:24.271Z,982.01
2022-12-17T05:33:24.109Z,982.02
2022-12-17T05:34:24.015Z,982.03
2022-12-17T05:35:23.923Z,982.04
2022-12-17T05:36:23.833Z,982.07
2022-12-17T05:37:23.742Z,982.08
2022-12-17T05:38:23.655Z,982.09
2022-12-17T05:39:23.559Z,982.07
2022-12-17T05:40:23.469Z,982.09
2022-12-17T05:41:23.373Z,982.07
2022-12-17T05:42:23.288Z,982.08
2022-12-17T05:43:23.191Z,982.09
2022-12-17T05:44:23.100Z,982.10
2022-12-17T05:45:23.007Z,982.09
2022-12-17T05:46:23.010Z,982.08
2022-12-17T05:47:22.828Z,982.11
2022-12-17T05:48:22.847Z,982.15
2022-12-17T05:49:22.641Z,982.12
2022-12-17T05:50:22.554Z,982.15
2022-12-17T05:51:22.461Z,982.16
2022-12-17T05:52:22.378Z,982.17
2022-12-17T05:53:22.273Z,982.16
2022-12-17T05:54:22.185Z,982.16
2022-12-17T05:55:22.091Z,982.16
2022-12-17T05:56:22.006Z,982.15
2022-12-17T05:57:21.910Z,982.19
2022-12-17T05:58:21.818Z,982.23
2022-12-17T05:59:21.729Z,982.24
2022-12-17T06:00:21.637Z,982.26
2022-12-17T06:01:21.602Z,982.23
2022-12-17T06:02:21.505Z,982.24
2022-12-17T06:03:21.462Z,982.26
2022-12-17T06:04:21.270Z,982.28
2022-12-17T06:05:21.180Z,982.29
2022-12-17T06:06:21.084Z,982.31
2022-12-17T06:07:20.994Z,982.33
2022-12-17T06:08:20.902Z,982.32
2022-12-17T06:09:20.806Z,982.37
2022-12-17T06:10:20.720Z,982.35
2022-12-17T06:11:20.629Z,982.38
2022-12-17T06:12:20.535Z,982.38
2022-12-17T06:13:20.439Z,982.40
2022-12-17T06:14:20.352Z,982.39
2022-12-17T06:15:20.258Z,982.36
2022-12-17T06:16:20.214Z,982.38
2022-12-17T06:17:20.077Z,982.42
2022-12-17T06:18:19.983Z,982.45
2022-12-17T06:19:19.889Z,982.46
2022-12-17T06:20:19.798Z,982.50
2022-12-17T06:21:19.707Z,982.53
2022-12-17T06:22:19.611Z,982.55
2022-12-17T06:23:19.525Z,982.59
2022-12-17T06:24:19.435Z,982.61
2022-12-17T06:25:19.342Z,982.61
2022-12-17T06:26:19.249Z,982.61
2022-12-17T06:27:19.159Z,982.64
2022-12-17T06:28:19.061Z,982.63
2022-12-17T06:29:18.967Z,982.71
2022-12-17T06:30:19.308Z,982.70
2022-12-17T06:31:18.813Z,982.69
2022-12-17T06:32:18.696Z,982.71
2022-12-17T06:33:18.600Z,982.73
2022-12-17T06:34:18.506Z,982.76
2022-12-17T06:35:18.416Z,982.73
2022-12-17T06:36:22.537Z,982.75
2022-12-17T06:37:18.234Z,982.76
2022-12-17T06:38:18.145Z,982.74
2022-12-17T06:39:18.050Z,982.79
2022-12-17T06:40:17.955Z,982.77
2022-12-17T06:41:17.872Z,982.76
2022-12-17T06:42:17.770Z,982.77
2022-12-17T06:43:17.689Z,982.78
2022-12-17T06:44:17.594Z,982.76
2022-12-17T06:45:17.496Z,982.79
2022-12-17T06:46:17.438Z,982.77
2022-12-17T06:47:17.313Z,982.79
2022-12-17T06:48:17.218Z,982.85
2022-12-17T06:49:17.124Z,982.86
2022-12-17T06:50:17.034Z,982.85
2022-12-17T06:51:16.944Z,982.87
2022-12-17T06:52:16.858Z,982.87
2022-12-17T06:53:16.756Z,982.90
2022-12-17T06:54:16.662Z,982.86
2022-12-17T06:55:16.575Z,982.90
2022-12-17T06:56:16.480Z,982.88
2022-12-17T06:57:16.404Z,982.92
2022-12-17T06:58:16.292Z,982.94
2022-12-17T06:59:16.204Z,982.98
2022-12-17T07:00:16.115Z,983.00
2022-12-17T07:01:16.098Z,983.01
2022-12-17T07:02:16.049Z,983.07
2022-12-17T07:03:15.913Z,983.05
2022-12-17T07:04:15.739Z,983.09
2022-12-17T07:05:15.650Z,983.08
2022-12-17T07:06:15.559Z,983.12
2022-12-17T07:07:15.469Z,983.13
2022-12-17T07:08:15.376Z,983.13
2022-12-17T07:09:15.281Z,983.17
2022-12-17T07:10:15.188Z,983.24
2022-12-17T07:11:15.093Z,983.19
2022-12-17T07:12:15.053Z,983.23
2022-12-17T07:13:14.918Z,983.20
2022-12-17T07:14:14.817Z,983.25
2022-12-17T07:15:14.728Z,983.19
2022-12-17T07:16:14.679Z,983.22
2022-12-17T07:17:14.544Z,983.27
2022-12-17T07:18:14.448Z,983.29
2022-12-17T07:19:14.365Z,983.30
2022-12-17T07:20:14.270Z,983.36
2022-12-17T07:21:14.176Z,983.40
2022-12-17T07:22:14.082Z,983.42
2022-12-17T07:23:13.991Z,983.41
2022-12-17T07:24:13.904Z,983.45
2022-12-17T07:25:13.803Z,983.46
2022-12-17T07:26:13.708Z,983.45
2022-12-17T07:27:13.625Z,983.48
2022-12-17T07:28:13.529Z,983.49
2022-12-17T07:29:13.434Z,983.49
2022-12-17T07:30:13.339Z,983.54
2022-12-17T07:31:13.297Z,983.57
2022-12-17T07:32:13.154Z,983.59
2022-12-17T07:33:13.072Z,983.62
2022-12-17T07:34:12.968Z,983.64
2022-12-17T07:35:12.876Z,983.61
2022-12-17T07:36:12.784Z,983.64
2022-12-17T07:37:17.354Z,983.67
2022-12-17T07:38:12.631Z,983.68
2022-12-17T07:39:12.506Z,983.72
2022-12-17T07:40:12.421Z,983.73
2022-12-17T07:41:12.324Z,983.78
2022-12-17T07:42:12.232Z,983.75
2022-12-17T07:43:12.142Z,983.80
2022-12-17T07:44:12.063Z,983.77
2022-12-17T07:45:11.950Z,983.84
2022-12-17T07:46:11.877Z,983.83
2022-12-17T07:47:11.770Z,983.84
2022-12-17T07:48:11.678Z,983.83
2022-12-17T07:49:11.589Z,983.79
2022-12-17T07:50:11.492Z,983.80
2022-12-17T07:51:11.398Z,983.82
2022-12-17T07:52:11.303Z,983.81
2022-12-17T07:53:11.214Z,983.82
2022-12-17T07:54:11.120Z,983.84
2022-12-17T07:55:14.265Z,983.86
2022-12-17T07:56:10.938Z,983.82
2022-12-17T07:57:10.848Z,983.84
2022-12-17T07:58:10.751Z,983.83
2022-12-17T07:59:10.660Z,983.86
2022-12-17T08:00:10.570Z,983.84
2022-12-17T08:01:10.514Z,983.90
2022-12-17T08:02:10.610Z,983.93
2022-12-17T08:03:10.419Z,983.92
2022-12-17T08:04:10.201Z,983.89
2022-12-17T08:05:10.110Z,983.93
2022-12-17T08:06:10.015Z,983.94
2022-12-17T08:07:13.344Z,983.95
2022-12-17T08:08:09.831Z,983.97
2022-12-17T08:09:09.811Z,983.94
2022-12-17T08:10:09.643Z,983.97
2022-12-17T08:11:09.565Z,983.99
2022-12-17T08:12:09.468Z,984.00
2022-12-17T08:13:13.905Z,984.04
2022-12-17T08:14:09.279Z,984.01
2022-12-17T08:15:09.189Z,984.01
2022-12-17T08:16:09.131Z,984.05
2022-12-17T08:17:09.005Z,984.09
2022-12-17T08:18:08.914Z,984.08
2022-12-17T08:19:08.824Z,984.14
2022-12-17T08:20:08.726Z,984.12
2022-12-17T08:21:08.649Z,984.14
2022-12-17T08:22:08.548Z,984.18
2022-12-17T08:23:08.455Z,984.16
2022-12-17T08:24:08.368Z,984.16
2022-12-17T08:25:08.273Z,984.18
2022-12-17T08:26:08.179Z,984.15
2022-12-17T08:27:08.093Z,984.25
2022-12-17T08:28:15.795Z,984.22
2022-12-17T08:29:07.907Z,984.24
2022-12-17T08:30:07.822Z,984.18
2022-12-17T08:31:07.900Z,984.19
2022-12-17T08:32:07.633Z,984.20
2022-12-17T08:33:07.543Z,984.22
2022-12-17T08:34:08.217Z,984.25
2022-12-17T08:35:07.367Z,984.23
2022-12-17T08:36:07.269Z,984.25
2022-12-17T08:37:07.180Z,984.25
2022-12-17T08:38:07.086Z,984.31
2022-12-17T08:39:07.001Z,984.34
2022-12-17T08:40:06.905Z,984.32
2022-12-17T08:41:06.815Z,984.36
2022-12-17T08:42:06.724Z,984.39
2022-12-17T08:43:06.635Z,984.39
2022-12-17T08:44:06.550Z,984.40
2022-12-17T08:45:06.454Z,984.40
2022-12-17T08:46:06.467Z,984.42
2022-12-17T08:47:06.271Z,984.43
2022-12-17T08:48:06.180Z,984.45
2022-12-17T08:49:06.094Z,984.45
2022-12-17T08:50:05.998Z,984.48
2022-12-17T08:51:05.916Z,984.47
2022-12-17T08:52:05.821Z,984.52
2022-12-17T08:53:05.729Z,984.51
2022-12-17T08:54:05.647Z,984.47
2022-12-17T08:55:05.553Z,984.49
2022-12-17T08:56:05.460Z,984.51
2022-12-17T08:57:05.369Z,984.58
2022-12-17T08:58:05.277Z,984.58
2022-12-17T08:59:05.192Z,984.56
2022-12-17T09:00:05.111Z,984.57
2022-12-17T09:01:05.122Z,984.60
2022-12-17T09:02:05.085Z,984.59
2022-12-17T09:03:04.897Z,984.62
2022-12-17T09:04:04.740Z,984.63
2022-12-17T09:05:04.648Z,984.65
2022-12-17T09:06:04.559Z,984.67
2022-12-17T09:07:04.472Z,984.58
2022-12-17T09:08:04.387Z,984.65
2022-12-17T09:09:04.295Z,984.63
2022-12-17T09:10:04.198Z,984.66
2022-12-17T09:11:04.113Z,984.69
2022-12-17T09:12:04.018Z,984.69
2022-12-17T09:13:05.161Z,984.76
2022-12-17T09:14:03.842Z,984.76
2022-12-17T09:15:03.754Z,984.78
2022-12-17T09:16:03.666Z,984.82
2022-12-17T09:17:03.631Z,984.79
2022-12-17T09:18:03.485Z,984.81
2022-12-17T09:19:03.399Z,984.80
2022-12-17T09:20:03.307Z,984.84
2022-12-17T09:21:03.219Z,984.81
2022-12-17T09:22:03.129Z,984.85
2022-12-17T09:23:03.042Z,984.82
2022-12-17T09:24:02.960Z,984.83
2022-12-17T09:25:02.864Z,984.82
2022-12-17T09:26:02.773Z,984.87
2022-12-17T09:27:02.683Z,984.84
2022-12-17T09:28:02.596Z,984.83
2022-12-17T09:29:02.514Z,984.86
2022-12-17T09:30:02.419Z,984.87
2022-12-17T09:31:02.406Z,984.91
2022-12-17T09:32:02.241Z,984.92
2022-12-17T09:33:02.156Z,984.95
2022-12-17T09:34:02.068Z,984.97
2022-12-17T09:35:01.977Z,984.94
2022-12-17T09:36:01.894Z,984.96
2022-12-17T09:37:01.796Z,984.97
2022-12-17T09:38:01.709Z,985.01
2022-12-17T09:39:01.620Z,985.05
2022-12-17T09:40:01.530Z,985.01
2022-12-17T09:41:01.442Z,985.05
2022-12-17T09:42:01.359Z,985.04
2022-12-17T09:43:01.276Z,985.02
2022-12-17T09:44:01.181Z,985.00
2022-12-17T09:45:01.089Z,985.05
2022-12-17T09:46:01.056Z,984.97
2022-12-17T09:47:00.915Z,985.01
2022-12-17T09:48:00.832Z,985.01
2022-12-17T09:49:00.741Z,984.99
2022-12-17T09:50:00.649Z,984.99
2022-12-17T09:51:00.564Z,985.01
2022-12-17T09:52:00.477Z,984.98
2022-12-17T09:53:00.387Z,985.01
2022-12-17T09:54:00.296Z,985.04
2022-12-17T09:55:01.618Z,985.01
2022-12-17T09:56:00.125Z,985.03
2022-12-17T09:57:00.040Z,985.00
2022-12-17T09:57:59.951Z,985.01
2022-12-17T09:58:59.862Z,985.01
2022-12-17T09:59:59.785Z,985.06
2022-12-17T10:01:01.195Z,985.04
2022-12-17T10:01:59.751Z,985.03
2022-12-17T10:02:59.755Z,985.03
2022-12-17T10:03:59.519Z,985.05
2022-12-17T10:04:59.340Z,985.04
2022-12-17T10:05:59.249Z,985.05
2022-12-17T10:06:59.162Z,985.05
2022-12-17T10:07:59.075Z,985.06
2022-12-17T10:08:59.003Z,985.07
2022-12-17T10:09:58.902Z,985.11
2022-12-17T10:10:58.816Z,985.08
2022-12-17T10:11:58.733Z,985.10
2022-12-17T10:12:58.644Z,985.11
2022-12-17T10:13:58.554Z,985.10
2022-12-17T10:14:58.466Z,985.14
2022-12-17T10:15:58.402Z,985.14
2022-12-17T10:16:58.291Z,985.15
2022-12-17T10:17:58.206Z,985.16
2022-12-17T10:18:58.121Z,985.14
2022-12-17T10:19:58.040Z,985.18
2022-12-17T10:20:57.948Z,985.16
2022-12-17T10:21:57.857Z,985.21
2022-12-17T10:22:57.772Z,985.20
2022-12-17T10:23:57.685Z,985.21
2022-12-17T10:24:57.598Z,985.21
2022-12-17T10:25:57.514Z,985.18
2022-12-17T10:26:57.426Z,985.21
2022-12-17T10:27:57.337Z,985.18
2022-12-17T10:28:57.254Z,985.21
2022-12-17T10:29:57.179Z,985.23
2022-12-17T10:30:57.141Z,985.23
2022-12-17T10:31:56.990Z,985.23
2022-12-17T10:32:56.904Z,985.25
2022-12-17T10:33:56.815Z,985.25
2022-12-17T10:35:01.852Z,985.31
2022-12-17T10:35:56.645Z,985.27
2022-12-17T10:36:56.559Z,985.30
2022-12-17T10:37:56.470Z,985.28
2022-12-17T10:38:56.386Z,985.25
2022-12-17T10:39:56.302Z,985.24
2022-12-17T10:40:56.212Z,985.26
2022-12-17T10:41:56.127Z,985.24
2022-12-17T10:42:56.042Z,985.19
2022-12-17T10:43:55.954Z,985.26
2022-12-17T10:44:55.867Z,985.25
2022-12-17T10:45:55.818Z,985.24
2022-12-17T10:46:55.735Z,985.24
2022-12-17T10:47:55.628Z,985.21
2022-12-17T10:48:55.521Z,985.26
2022-12-17T10:49:55.439Z,985.27
2022-12-17T10:50:55.352Z,985.22
2022-12-17T10:51:55.264Z,985.25
2022-12-17T10:52:55.176Z,985.22
2022-12-17T10:53:55.092Z,985.21
2022-12-17T10:54:55.006Z,985.21
2022-12-17T10:55:54.926Z,985.25
2022-12-17T10:56:54.830Z,985.24
2022-12-17T10:57:54.747Z,985.28
2022-12-17T10:58:54.661Z,985.28
2022-12-17T10:59:54.600Z,985.28
2022-12-17T11:00:54.490Z,985.28
2022-12-17T11:01:54.558Z,985.29
2022-12-17T11:02:54.560Z,985.27
2022-12-17T11:03:54.300Z,985.26
2022-12-17T11:04:54.144Z,985.28
2022-12-17T11:05:59.380Z,985.31
2022-12-17T11:06:53.974Z,985.34
2022-12-17T11:07:53.888Z,985.33
2022-12-17T11:08:53.802Z,985.34
2022-12-17T11:09:53.719Z,985.37
2022-12-17T11:10:53.629Z,985.37
2022-12-17T11:11:53.545Z,985.37
2022-12-17T11:12:53.460Z,985.40
2022-12-17T11:13:53.373Z,985.40
2022-12-17T11:14:53.287Z,985.42
2022-12-17T11:15:53.236Z,985.42
2022-12-17T11:16:53.120Z,985.43
2022-12-17T11:17:53.029Z,985.43
2022-12-17T11:18:52.942Z,985.46
2022-12-17T11:19:52.860Z,985.45
2022-12-17T11:20:52.774Z,985.45
2022-12-17T11:21:52.688Z,985.46
2022-12-17T11:22:52.599Z,985.48
2022-12-17T11:23:52.519Z,985.47
2022-12-17T11:24:52.427Z,985.45
2022-12-17T11:25:52.348Z,985.45
2022-12-17T11:26:52.258Z,985.44
2022-12-17T11:27:52.174Z,985.44
2022-12-17T11:28:52.088Z,985.42
2022-12-17T11:29:52.005Z,985.43
2022-12-17T11:30:51.972Z,985.39
2022-12-17T11:31:51.834Z,985.42
2022-12-17T11:32:51.749Z,985.39
2022-12-17T11:33:51.665Z,985.39
2022-12-17T11:34:51.577Z,985.37
2022-12-17T11:35:51.493Z,985.39
2022-12-17T11:36:51.403Z,985.40
2022-12-17T11:37:51.321Z,985.40
2022-12-17T11:38:51.239Z,985.38
2022-12-17T11:39:51.154Z,985.40
2022-12-17T11:40:51.062Z,985.40
2022-12-17T11:41:50.980Z,985.42
2022-12-17T11:42:50.890Z,985.44
2022-12-17T11:43:50.806Z,985.47
2022-12-17T11:44:50.726Z,985.41
2022-12-17T11:45:50.643Z,985.42
2022-12-17T11:46:50.579Z,985.40
2022-12-17T11:47:53.637Z,985.43
2022-12-17T11:48:50.381Z,985.42
2022-12-17T11:49:50.294Z,985.40
2022-12-17T11:50:50.214Z,985.43
2022-12-17T11:51:50.128Z,985.43
2022-12-17T11:52:50.037Z,985.40
2022-12-17T11:53:49.951Z,985.39
2022-12-17T11:54:49.869Z,985.38
2022-12-17T11:55:49.789Z,985.41
2022-12-17T11:56:49.702Z,985.39
2022-12-17T11:57:49.614Z,985.44
2022-12-17T11:58:49.525Z,985.43
2022-12-17T11:59:54.006Z,985.43
2022-12-17T12:00:49.352Z,985.40
2022-12-17T12:01:49.338Z,985.40
2022-12-17T12:02:49.244Z,985.39
2022-12-17T12:03:49.202Z,985.37
2022-12-17T12:04:49.013Z,985.36
2022-12-17T12:05:53.467Z,985.31
2022-12-17T12:06:48.851Z,985.38
2022-12-17T12:07:48.759Z,985.36
2022-12-17T12:08:48.673Z,985.37
2022-12-17T12:09:48.591Z,985.34
2022-12-17T12:10:48.502Z,985.35
2022-12-17T12:11:48.426Z,985.39
2022-12-17T12:12:48.333Z,985.40
2022-12-17T12:13:48.248Z,985.44
2022-12-17T12:14:48.163Z,985.45
2022-12-17T12:15:48.099Z,985.46
2022-12-17T12:16:48.036Z,985.46
2022-12-17T12:17:47.906Z,985.45
2022-12-17T12:18:47.821Z,985.47
2022-12-17T12:19:47.741Z,985.44
2022-12-17T12:20:47.650Z,985.48
2022-12-17T12:21:47.564Z,985.49
2022-12-17T12:22:47.478Z,985.45
2022-12-17T12:23:47.400Z,985.45
2022-12-17T12:24:47.313Z,985.49
2022-12-17T12:25:47.227Z,985.50
2022-12-17T12:26:47.137Z,985.52
2022-12-17T12:27:47.059Z,985.50